sensor_id;sensor_type;location;lat;lon;timestamp;temperature;humidity
52903;DHT22;38765;53.176;7.090;2022-07-01T00:00:47;16.30;99.90
52903;DHT22;38765;53.176;7.090;2022-07-01T00:03:13;16.30;99.90
52903;DHT22;38765;53.176;7.090;2022-07-01T00:05:38;16.20;99.90
52903;DHT22;38765;53.176;7.090;2022-07-01T00:08:04;16.20;99.90
52903;DHT22;38765;53.176;7.090;2022-07-01T00:10:30;16.20;99.90
52903;DHT22;38765;53.176;7.090;2022-07-01T00:12:55;15.80;99.90
52903;DHT22;38765;53.176;7.090;2022-07-01T00:15:21;16.10;99.90
52903;DHT22;38765;53.176;7.090;2022-07-01T00:17:47;16.10;99.90
52903;DHT22;38765;53.176;7.090;2022-07-01T00:20:13;16.10;99.90
52903;DHT22;38765;53.176;7.090;2022-07-01T00:22:40;16.00;99.90
52903;DHT22;38765;53.176;7.090;2022-07-01T00:25:06;16.00;99.90
52903;DHT22;38765;53.176;7.090;2022-07-01T00:27:32;16.00;99.90
52903;DHT22;38765;53.176;7.090;2022-07-01T00:29:58;16.00;99.90
52903;DHT22;38765;53.176;7.090;2022-07-01T00:32:26;16.00;99.90
52903;DHT22;38765;53.176;7.090;2022-07-01T00:34:51;16.00;99.90
52903;DHT22;38765;53.176;7.090;2022-07-01T00:37:17;15.90;99.90
52903;DHT22;38765;53.176;7.090;2022-07-01T00:39:43;16.00;99.90
52903;DHT22;38765;53.176;7.090;2022-07-01T00:42:11;16.00;99.90
52903;DHT22;38765;53.176;7.090;2022-07-01T00:44:36;16.00;99.90
52903;DHT22;38765;53.176;7.090;2022-07-01T00:47:03;16.00;99.90
52903;DHT22;38765;53.176;7.090;2022-07-01T00:49:29;16.00;99.90
52903;DHT22;38765;53.176;7.090;2022-07-01T00:51:55;16.00;99.90
52903;DHT22;38765;53.176;7.090;2022-07-01T00:54:21;16.00;99.90
52903;DHT22;38765;53.176;7.090;2022-07-01T00:56:47;16.10;99.90
52903;DHT22;38765;53.176;7.090;2022-07-01T00:59:13;16.10;99.90
52903;DHT22;38765;53.176;7.090;2022-07-01T01:01:39;16.10;99.90
52903;DHT22;38765;53.176;7.090;2022-07-01T01:04:05;16.00;99.90
52903;DHT22;38765;53.176;7.090;2022-07-01T01:06:33;16.00;99.90
52903;DHT22;38765;53.176;7.090;2022-07-01T01:08:59;16.00;99.90
52903;DHT22;38765;53.176;7.090;2022-07-01T01:11:25;16.10;99.90
52903;DHT22;38765;53.176;7.090;2022-07-01T01:13:51;16.10;99.90
52903;DHT22;38765;53.176;7.090;2022-07-01T01:16:20;16.20;99.90
52903;DHT22;38765;53.176;7.090;2022-07-01T01:18:45;16.20;99.90
52903;DHT22;38765;53.176;7.090;2022-07-01T01:21:11;16.20;99.90
52903;DHT22;38765;53.176;7.090;2022-07-01T01:23:37;16.20;99.90
52903;DHT22;38765;53.176;7.090;2022-07-01T01:26:02;16.20;99.90
52903;DHT22;38765;53.176;7.090;2022-07-01T01:28:28;16.20;99.90
52903;DHT22;38765;53.176;7.090;2022-07-01T01:30:54;16.20;99.90
52903;DHT22;38765;53.176;7.090;2022-07-01T01:33:19;16.20;99.90
52903;DHT22;38765;53.176;7.090;2022-07-01T01:35:45;16.10;99.90
52903;DHT22;38765;53.176;7.090;2022-07-01T01:38:10;16.10;99.90
52903;DHT22;38765;53.176;7.090;2022-07-01T01:40:36;16.20;99.90
52903;DHT22;38765;53.176;7.090;2022-07-01T01:43:02;16.20;99.90
52903;DHT22;38765;53.176;7.090;2022-07-01T01:45:27;16.10;99.90
52903;DHT22;38765;53.176;7.090;2022-07-01T01:47:53;16.10;99.90
52903;DHT22;38765;53.176;7.090;2022-07-01T01:50:19;16.10;99.90
52903;DHT22;38765;53.176;7.090;2022-07-01T01:52:45;16.10;99.90
52903;DHT22;38765;53.176;7.090;2022-07-01T01:55:11;16.10;99.90
52903;DHT22;38765;53.176;7.090;2022-07-01T01:57:36;16.10;99.90
52903;DHT22;38765;53.176;7.090;2022-07-01T02:00:03;16.00;99.90
52903;DHT22;38765;53.176;7.090;2022-07-01T02:02:29;16.10;99.90
52903;DHT22;38765;53.176;7.090;2022-07-01T02:04:55;16.00;99.90
52903;DHT22;38765;53.176;7.090;2022-07-01T02:07:20;16.00;99.90
52903;DHT22;38765;53.176;7.090;2022-07-01T02:09:46;16.00;99.90
52903;DHT22;38765;53.176;7.090;2022-07-01T02:12:12;16.00;99.90
52903;DHT22;38765;53.176;7.090;2022-07-01T02:14:37;16.10;99.90
52903;DHT22;38765;53.176;7.090;2022-07-01T02:17:05;16.10;99.90
52903;DHT22;38765;53.176;7.090;2022-07-01T02:19:31;16.10;99.90
52903;DHT22;38765;53.176;7.090;2022-07-01T02:21:56;16.10;99.90
52903;DHT22;38765;53.176;7.090;2022-07-01T02:24:22;16.10;99.90
52903;DHT22;38765;53.176;7.090;2022-07-01T02:26:48;16.10;99.90
52903;DHT22;38765;53.176;7.090;2022-07-01T02:29:14;16.10;99.90
52903;DHT22;38765;53.176;7.090;2022-07-01T02:31:39;16.10;99.90
52903;DHT22;38765;53.176;7.090;2022-07-01T02:34:05;16.10;99.90
52903;DHT22;38765;53.176;7.090;2022-07-01T02:36:30;16.10;99.90
52903;DHT22;38765;53.176;7.090;2022-07-01T02:38:56;16.10;99.90
52903;DHT22;38765;53.176;7.090;2022-07-01T02:41:22;16.10;99.90
52903;DHT22;38765;53.176;7.090;2022-07-01T02:43:47;16.10;99.90
52903;DHT22;38765;53.176;7.090;2022-07-01T02:46:13;16.10;99.90
52903;DHT22;38765;53.176;7.090;2022-07-01T02:48:38;16.10;99.90
52903;DHT22;38765;53.176;7.090;2022-07-01T02:51:04;16.10;99.90
52903;DHT22;38765;53.176;7.090;2022-07-01T02:53:30;16.10;99.90
52903;DHT22;38765;53.176;7.090;2022-07-01T02:55:55;16.00;99.90
52903;DHT22;38765;53.176;7.090;2022-07-01T02:58:21;16.00;99.90
52903;DHT22;38765;53.176;7.090;2022-07-01T03:00:46;16.00;99.90
52903;DHT22;38765;53.176;7.090;2022-07-01T03:03:14;16.00;99.90
52903;DHT22;38765;53.176;7.090;2022-07-01T03:05:39;15.90;99.90
52903;DHT22;38765;53.176;7.090;2022-07-01T03:08:08;16.00;99.90
52903;DHT22;38765;53.176;7.090;2022-07-01T03:10:34;15.90;99.90
52903;DHT22;38765;53.176;7.090;2022-07-01T03:12:59;15.90;99.90
52903;DHT22;38765;53.176;7.090;2022-07-01T03:15:27;15.90;99.90
52903;DHT22;38765;53.176;7.090;2022-07-01T03:17:52;15.80;99.90
52903;DHT22;38765;53.176;7.090;2022-07-01T03:20:18;15.80;99.90
52903;DHT22;38765;53.176;7.090;2022-07-01T03:22:44;15.80;99.90
52903;DHT22;38765;53.176;7.090;2022-07-01T03:25:10;15.80;99.90
52903;DHT22;38765;53.176;7.090;2022-07-01T03:27:37;15.80;99.90
52903;DHT22;38765;53.176;7.090;2022-07-01T03:30:03;15.80;99.90
52903;DHT22;38765;53.176;7.090;2022-07-01T03:32:29;15.80;99.90
52903;DHT22;38765;53.176;7.090;2022-07-01T03:34:55;15.80;99.90
52903;DHT22;38765;53.176;7.090;2022-07-01T03:37:21;15.70;99.90
52903;DHT22;38765;53.176;7.090;2022-07-01T03:39:49;15.70;99.90
52903;DHT22;38765;53.176;7.090;2022-07-01T03:42:15;15.70;99.90
52903;DHT22;38765;53.176;7.090;2022-07-01T03:44:41;15.70;99.90
52903;DHT22;38765;53.176;7.090;2022-07-01T03:47:09;15.70;99.90
52903;DHT22;38765;53.176;7.090;2022-07-01T03:49:35;15.70;99.90
52903;DHT22;38765;53.176;7.090;2022-07-01T03:52:01;15.70;99.90
52903;DHT22;38765;53.176;7.090;2022-07-01T03:54:26;15.70;99.90
52903;DHT22;38765;53.176;7.090;2022-07-01T03:57:03;15.70;99.90
52903;DHT22;38765;53.176;7.090;2022-07-01T03:59:29;15.70;99.90
52903;DHT22;38765;53.176;7.090;2022-07-01T04:01:55;15.70;99.90
52903;DHT22;38765;53.176;7.090;2022-07-01T04:04:24;15.70;99.90
52903;DHT22;38765;53.176;7.090;2022-07-01T04:06:49;15.70;99.90
52903;DHT22;38765;53.176;7.090;2022-07-01T04:09:15;15.70;99.90
52903;DHT22;38765;53.176;7.090;2022-07-01T04:11:42;15.70;99.90
52903;DHT22;38765;53.176;7.090;2022-07-01T04:14:08;15.60;99.90
52903;DHT22;38765;53.176;7.090;2022-07-01T04:16:34;15.70;99.90
52903;DHT22;38765;53.176;7.090;2022-07-01T04:19:00;15.60;99.90
52903;DHT22;38765;53.176;7.090;2022-07-01T04:21:25;15.70;99.90
52903;DHT22;38765;53.176;7.090;2022-07-01T04:24:10;15.70;99.90
52903;DHT22;38765;53.176;7.090;2022-07-01T04:26:36;15.70;99.90
52903;DHT22;38765;53.176;7.090;2022-07-01T04:29:01;15.70;99.90
52903;DHT22;38765;53.176;7.090;2022-07-01T04:31:27;15.70;99.90
52903;DHT22;38765;53.176;7.090;2022-07-01T04:33:53;15.70;99.90
52903;DHT22;38765;53.176;7.090;2022-07-01T04:36:20;15.70;99.90
52903;DHT22;38765;53.176;7.090;2022-07-01T04:38:46;15.70;99.90
52903;DHT22;38765;53.176;7.090;2022-07-01T04:41:11;15.70;99.90
52903;DHT22;38765;53.176;7.090;2022-07-01T04:43:56;15.70;99.90
52903;DHT22;38765;53.176;7.090;2022-07-01T04:46:21;15.70;99.90
52903;DHT22;38765;53.176;7.090;2022-07-01T04:48:47;15.70;99.90
52903;DHT22;38765;53.176;7.090;2022-07-01T04:51:12;15.70;99.90
52903;DHT22;38765;53.176;7.090;2022-07-01T04:53:38;15.80;99.90
52903;DHT22;38765;53.176;7.090;2022-07-01T04:56:04;15.70;99.90
52903;DHT22;38765;53.176;7.090;2022-07-01T04:58:29;15.80;99.90
52903;DHT22;38765;53.176;7.090;2022-07-01T05:00:55;16.00;99.90
52903;DHT22;38765;53.176;7.090;2022-07-01T05:03:20;15.70;99.90
52903;DHT22;38765;53.176;7.090;2022-07-01T05:05:46;15.70;99.90
52903;DHT22;38765;53.176;7.090;2022-07-01T05:08:12;15.80;99.90
52903;DHT22;38765;53.176;7.090;2022-07-01T05:10:37;16.00;99.90
52903;DHT22;38765;53.176;7.090;2022-07-01T05:13:03;15.80;99.90
52903;DHT22;38765;53.176;7.090;2022-07-01T05:15:28;15.80;99.90
52903;DHT22;38765;53.176;7.090;2022-07-01T05:17:54;15.80;99.90
52903;DHT22;38765;53.176;7.090;2022-07-01T05:20:38;15.80;99.90
52903;DHT22;38765;53.176;7.090;2022-07-01T05:23:22;15.80;99.90
52903;DHT22;38765;53.176;7.090;2022-07-01T05:25:48;15.80;99.90
52903;DHT22;38765;53.176;7.090;2022-07-01T05:28:14;15.80;99.90
52903;DHT22;38765;53.176;7.090;2022-07-01T05:30:39;15.80;99.90
52903;DHT22;38765;53.176;7.090;2022-07-01T05:33:05;15.80;99.90
52903;DHT22;38765;53.176;7.090;2022-07-01T05:35:31;15.80;99.90
52903;DHT22;38765;53.176;7.090;2022-07-01T05:37:56;15.80;99.90
52903;DHT22;38765;53.176;7.090;2022-07-01T05:40:22;15.80;99.90
52903;DHT22;38765;53.176;7.090;2022-07-01T05:42:48;15.80;99.90
52903;DHT22;38765;53.176;7.090;2022-07-01T05:45:13;15.80;99.90
52903;DHT22;38765;53.176;7.090;2022-07-01T05:47:39;15.80;99.90
52903;DHT22;38765;53.176;7.090;2022-07-01T05:50:05;15.80;99.90
52903;DHT22;38765;53.176;7.090;2022-07-01T05:52:30;15.30;99.90
52903;DHT22;38765;53.176;7.090;2022-07-01T05:54:56;15.80;99.90
52903;DHT22;38765;53.176;7.090;2022-07-01T05:57:22;15.80;99.90
52903;DHT22;38765;53.176;7.090;2022-07-01T05:59:48;15.90;99.90
52903;DHT22;38765;53.176;7.090;2022-07-01T06:02:13;15.80;99.90
52903;DHT22;38765;53.176;7.090;2022-07-01T06:04:39;15.80;99.90
52903;DHT22;38765;53.176;7.090;2022-07-01T06:07:05;15.90;99.90
52903;DHT22;38765;53.176;7.090;2022-07-01T06:09:30;15.90;99.90
52903;DHT22;38765;53.176;7.090;2022-07-01T06:11:56;15.90;99.90
52903;DHT22;38765;53.176;7.090;2022-07-01T06:14:21;16.00;99.90
52903;DHT22;38765;53.176;7.090;2022-07-01T06:16:47;16.00;99.90
52903;DHT22;38765;53.176;7.090;2022-07-01T06:19:13;16.00;99.90
52903;DHT22;38765;53.176;7.090;2022-07-01T06:21:38;16.10;99.90
52903;DHT22;38765;53.176;7.090;2022-07-01T06:24:04;15.90;99.90
52903;DHT22;38765;53.176;7.090;2022-07-01T06:26:30;16.10;99.90
52903;DHT22;38765;53.176;7.090;2022-07-01T06:28:55;16.20;99.90
52903;DHT22;38765;53.176;7.090;2022-07-01T06:31:21;16.20;99.90
52903;DHT22;38765;53.176;7.090;2022-07-01T06:33:48;16.20;99.90
52903;DHT22;38765;53.176;7.090;2022-07-01T06:36:14;16.20;99.90
52903;DHT22;38765;53.176;7.090;2022-07-01T06:38:42;15.90;99.90
52903;DHT22;38765;53.176;7.090;2022-07-01T06:41:10;16.20;99.90
52903;DHT22;38765;53.176;7.090;2022-07-01T06:43:58;16.20;99.90
52903;DHT22;38765;53.176;7.090;2022-07-01T06:46:24;16.10;99.90
52903;DHT22;38765;53.176;7.090;2022-07-01T06:48:50;16.10;99.90
52903;DHT22;38765;53.176;7.090;2022-07-01T06:51:15;16.10;99.90
52903;DHT22;38765;53.176;7.090;2022-07-01T06:53:41;16.20;99.90
52903;DHT22;38765;53.176;7.090;2022-07-01T06:56:07;16.20;99.90
52903;DHT22;38765;53.176;7.090;2022-07-01T06:58:33;16.20;99.90
52903;DHT22;38765;53.176;7.090;2022-07-01T07:01:01;16.20;99.90
52903;DHT22;38765;53.176;7.090;2022-07-01T07:03:29;16.30;99.90
52903;DHT22;38765;53.176;7.090;2022-07-01T07:05:54;16.30;99.90
52903;DHT22;38765;53.176;7.090;2022-07-01T07:08:20;16.30;99.90
52903;DHT22;38765;53.176;7.090;2022-07-01T07:10:46;16.40;99.90
52903;DHT22;38765;53.176;7.090;2022-07-01T07:13:11;16.50;99.90
52903;DHT22;38765;53.176;7.090;2022-07-01T07:15:39;16.50;99.90
52903;DHT22;38765;53.176;7.090;2022-07-01T07:18:07;16.50;99.90
52903;DHT22;38765;53.176;7.090;2022-07-01T07:20:33;16.50;99.90
52903;DHT22;38765;53.176;7.090;2022-07-01T07:22:59;16.60;99.90
52903;DHT22;38765;53.176;7.090;2022-07-01T07:25:25;16.60;99.90
52903;DHT22;38765;53.176;7.090;2022-07-01T07:34:54;16.90;99.90
52903;DHT22;38765;53.176;7.090;2022-07-01T07:37:30;17.00;99.90
52903;DHT22;38765;53.176;7.090;2022-07-01T07:39:58;17.10;99.90
52903;DHT22;38765;53.176;7.090;2022-07-01T07:42:23;17.10;99.90
52903;DHT22;38765;53.176;7.090;2022-07-01T07:44:49;17.10;99.90
52903;DHT22;38765;53.176;7.090;2022-07-01T07:47:14;17.10;99.90
52903;DHT22;38765;53.176;7.090;2022-07-01T07:49:40;17.20;99.90
52903;DHT22;38765;53.176;7.090;2022-07-01T07:52:06;17.20;99.90
52903;DHT22;38765;53.176;7.090;2022-07-01T07:54:31;17.20;99.90
52903;DHT22;38765;53.176;7.090;2022-07-01T07:56:57;17.20;99.90
52903;DHT22;38765;53.176;7.090;2022-07-01T07:59:22;17.30;99.90
52903;DHT22;38765;53.176;7.090;2022-07-01T08:01:48;17.30;99.90
52903;DHT22;38765;53.176;7.090;2022-07-01T08:04:14;17.30;99.90
52903;DHT22;38765;53.176;7.090;2022-07-01T08:06:39;17.30;99.90
52903;DHT22;38765;53.176;7.090;2022-07-01T08:09:05;17.30;99.90
52903;DHT22;38765;53.176;7.090;2022-07-01T08:11:31;17.30;99.90
52903;DHT22;38765;53.176;7.090;2022-07-01T08:13:57;17.40;99.90
52903;DHT22;38765;53.176;7.090;2022-07-01T08:16:23;17.40;99.90
52903;DHT22;38765;53.176;7.090;2022-07-01T08:18:49;17.50;99.90
52903;DHT22;38765;53.176;7.090;2022-07-01T08:21:14;17.60;99.90
52903;DHT22;38765;53.176;7.090;2022-07-01T08:23:40;17.60;99.90
52903;DHT22;38765;53.176;7.090;2022-07-01T08:26:06;17.60;99.90
52903;DHT22;38765;53.176;7.090;2022-07-01T08:28:31;17.60;99.90
52903;DHT22;38765;53.176;7.090;2022-07-01T08:30:57;17.60;99.90
52903;DHT22;38765;53.176;7.090;2022-07-01T08:33:22;17.70;99.90
52903;DHT22;38765;53.176;7.090;2022-07-01T08:35:48;17.70;99.90
52903;DHT22;38765;53.176;7.090;2022-07-01T08:38:14;17.70;99.90
52903;DHT22;38765;53.176;7.090;2022-07-01T08:40:40;17.70;99.90
52903;DHT22;38765;53.176;7.090;2022-07-01T08:43:06;17.60;99.90
52903;DHT22;38765;53.176;7.090;2022-07-01T08:45:33;17.80;99.90
52903;DHT22;38765;53.176;7.090;2022-07-01T08:47:59;17.90;99.90
52903;DHT22;38765;53.176;7.090;2022-07-01T08:50:29;17.90;99.90
52903;DHT22;38765;53.176;7.090;2022-07-01T08:52:55;18.10;99.90
52903;DHT22;38765;53.176;7.090;2022-07-01T08:55:21;18.10;99.90
52903;DHT22;38765;53.176;7.090;2022-07-01T08:57:47;18.20;99.90
52903;DHT22;38765;53.176;7.090;2022-07-01T09:00:12;18.20;99.90
52903;DHT22;38765;53.176;7.090;2022-07-01T09:05:36;18.20;99.90
52903;DHT22;38765;53.176;7.090;2022-07-01T09:08:06;18.10;99.90
52903;DHT22;38765;53.176;7.090;2022-07-01T09:10:32;18.10;99.90
52903;DHT22;38765;53.176;7.090;2022-07-01T09:13:06;18.00;99.90
52903;DHT22;38765;53.176;7.090;2022-07-01T09:15:33;18.00;99.90
52903;DHT22;38765;53.176;7.090;2022-07-01T09:18:05;18.00;99.90
52903;DHT22;38765;53.176;7.090;2022-07-01T09:20:32;18.00;99.90
52903;DHT22;38765;53.176;7.090;2022-07-01T09:24:33;18.00;99.90
52903;DHT22;38765;53.176;7.090;2022-07-01T09:25:48;18.00;99.90
52903;DHT22;38765;53.176;7.090;2022-07-01T09:28:17;18.10;99.90
52903;DHT22;38765;53.176;7.090;2022-07-01T09:30:44;18.20;99.90
52903;DHT22;38765;53.176;7.090;2022-07-01T09:33:14;18.30;99.90
52903;DHT22;38765;53.176;7.090;2022-07-01T09:35:40;18.40;99.90
52903;DHT22;38765;53.176;7.090;2022-07-01T09:38:07;18.40;99.90
52903;DHT22;38765;53.176;7.090;2022-07-01T09:40:44;18.50;99.90
52903;DHT22;38765;53.176;7.090;2022-07-01T09:43:13;18.60;99.90
52903;DHT22;38765;53.176;7.090;2022-07-01T09:45:47;18.60;99.90
52903;DHT22;38765;53.176;7.090;2022-07-01T09:48:13;18.60;99.90
52903;DHT22;38765;53.176;7.090;2022-07-01T09:50:39;18.70;99.90
52903;DHT22;38765;53.176;7.090;2022-07-01T09:53:05;18.80;99.90
52903;DHT22;38765;53.176;7.090;2022-07-01T09:55:30;18.90;99.90
52903;DHT22;38765;53.176;7.090;2022-07-01T09:57:57;19.00;99.90
52903;DHT22;38765;53.176;7.090;2022-07-01T10:00:22;19.00;99.90
52903;DHT22;38765;53.176;7.090;2022-07-01T10:02:48;19.00;99.90
52903;DHT22;38765;53.176;7.090;2022-07-01T10:05:17;19.00;99.90
52903;DHT22;38765;53.176;7.090;2022-07-01T10:07:52;19.00;99.90
52903;DHT22;38765;53.176;7.090;2022-07-01T10:13:21;19.10;99.90
52903;DHT22;38765;53.176;7.090;2022-07-01T10:15:48;19.10;99.90
52903;DHT22;38765;53.176;7.090;2022-07-01T10:18:22;19.20;99.90
52903;DHT22;38765;53.176;7.090;2022-07-01T10:20:48;19.30;99.90
52903;DHT22;38765;53.176;7.090;2022-07-01T10:23:14;19.30;99.90
52903;DHT22;38765;53.176;7.090;2022-07-01T10:25:44;19.30;99.90
52903;DHT22;38765;53.176;7.090;2022-07-01T10:28:13;19.40;99.90
52903;DHT22;38765;53.176;7.090;2022-07-01T10:30:58;19.40;99.90
52903;DHT22;38765;53.176;7.090;2022-07-01T10:39:08;19.40;99.90
52903;DHT22;38765;53.176;7.090;2022-07-01T10:41:36;19.50;99.90
52903;DHT22;38765;53.176;7.090;2022-07-01T10:44:03;19.60;99.90
52903;DHT22;38765;53.176;7.090;2022-07-01T10:46:42;19.70;99.90
52903;DHT22;38765;53.176;7.090;2022-07-01T10:49:21;19.80;99.90
52903;DHT22;38765;53.176;7.090;2022-07-01T10:52:09;19.80;99.90
52903;DHT22;38765;53.176;7.090;2022-07-01T10:57:23;19.80;99.90
52903;DHT22;38765;53.176;7.090;2022-07-01T11:00:24;19.80;99.90
52903;DHT22;38765;53.176;7.090;2022-07-01T11:02:42;19.90;99.90
52903;DHT22;38765;53.176;7.090;2022-07-01T11:05:09;20.00;99.90
52903;DHT22;38765;53.176;7.090;2022-07-01T11:07:36;20.00;99.90
52903;DHT22;38765;53.176;7.090;2022-07-01T11:10:03;20.10;99.90
52903;DHT22;38765;53.176;7.090;2022-07-01T11:12:29;20.10;99.90
52903;DHT22;38765;53.176;7.090;2022-07-01T11:14:56;20.10;99.90
52903;DHT22;38765;53.176;7.090;2022-07-01T11:17:24;20.00;99.90
52903;DHT22;38765;53.176;7.090;2022-07-01T11:19:51;20.10;99.90
52903;DHT22;38765;53.176;7.090;2022-07-01T11:22:18;20.10;99.90
52903;DHT22;38765;53.176;7.090;2022-07-01T11:24:44;20.20;99.90
52903;DHT22;38765;53.176;7.090;2022-07-01T11:27:10;20.20;99.90
52903;DHT22;38765;53.176;7.090;2022-07-01T11:29:35;20.30;99.90
52903;DHT22;38765;53.176;7.090;2022-07-01T11:32:01;20.20;99.90
52903;DHT22;38765;53.176;7.090;2022-07-01T11:34:28;20.30;99.90
52903;DHT22;38765;53.176;7.090;2022-07-01T11:36:54;20.40;99.90
52903;DHT22;38765;53.176;7.090;2022-07-01T11:39:38;20.50;99.90
52903;DHT22;38765;53.176;7.090;2022-07-01T11:42:06;20.50;99.90
52903;DHT22;38765;53.176;7.090;2022-07-01T11:44:37;20.60;99.90
52903;DHT22;38765;53.176;7.090;2022-07-01T11:47:04;20.70;99.90
52903;DHT22;38765;53.176;7.090;2022-07-01T11:49:29;20.70;99.90
52903;DHT22;38765;53.176;7.090;2022-07-01T11:51:56;20.80;99.90
52903;DHT22;38765;53.176;7.090;2022-07-01T11:54:22;20.90;99.90
52903;DHT22;38765;53.176;7.090;2022-07-01T11:56:48;21.10;99.90
52903;DHT22;38765;53.176;7.090;2022-07-01T11:59:13;21.20;99.90
52903;DHT22;38765;53.176;7.090;2022-07-01T12:01:39;21.20;99.90
52903;DHT22;38765;53.176;7.090;2022-07-01T12:04:06;21.20;99.90
52903;DHT22;38765;53.176;7.090;2022-07-01T12:06:31;21.30;99.90
52903;DHT22;38765;53.176;7.090;2022-07-01T12:08:58;21.40;99.90
52903;DHT22;38765;53.176;7.090;2022-07-01T12:11:26;21.40;99.90
52903;DHT22;38765;53.176;7.090;2022-07-01T12:13:52;21.40;99.90
52903;DHT22;38765;53.176;7.090;2022-07-01T12:16:18;21.60;99.90
52903;DHT22;38765;53.176;7.090;2022-07-01T12:18:53;21.60;99.90
52903;DHT22;38765;53.176;7.090;2022-07-01T12:21:19;21.50;99.90
52903;DHT22;38765;53.176;7.090;2022-07-01T12:26:29;21.30;99.90
52903;DHT22;38765;53.176;7.090;2022-07-01T12:28:55;21.30;99.90
52903;DHT22;38765;53.176;7.090;2022-07-01T12:31:20;21.30;99.90
52903;DHT22;38765;53.176;7.090;2022-07-01T12:33:51;21.00;99.90
52903;DHT22;38765;53.176;7.090;2022-07-01T12:36:16;21.00;99.90
52903;DHT22;38765;53.176;7.090;2022-07-01T12:38:42;20.80;99.90
52903;DHT22;38765;53.176;7.090;2022-07-01T12:41:27;20.40;99.90
52903;DHT22;38765;53.176;7.090;2022-07-01T12:43:53;20.10;99.90
52903;DHT22;38765;53.176;7.090;2022-07-01T12:46:28;20.00;99.90
52903;DHT22;38765;53.176;7.090;2022-07-01T12:48:54;19.90;99.90
52903;DHT22;38765;53.176;7.090;2022-07-01T12:51:20;19.90;99.90
52903;DHT22;38765;53.176;7.090;2022-07-01T12:53:45;19.90;99.90
52903;DHT22;38765;53.176;7.090;2022-07-01T12:56:21;19.90;99.90
52903;DHT22;38765;53.176;7.090;2022-07-01T12:58:47;19.80;99.90
52903;DHT22;38765;53.176;7.090;2022-07-01T13:01:12;19.80;99.90
52903;DHT22;38765;53.176;7.090;2022-07-01T13:03:38;19.70;99.90
52903;DHT22;38765;53.176;7.090;2022-07-01T13:06:04;19.60;99.90
52903;DHT22;38765;53.176;7.090;2022-07-01T13:08:32;19.60;99.90
52903;DHT22;38765;53.176;7.090;2022-07-01T13:10:58;19.70;99.90
52903;DHT22;38765;53.176;7.090;2022-07-01T13:13:23;19.90;99.90
52903;DHT22;38765;53.176;7.090;2022-07-01T13:15:49;20.00;99.90
52903;DHT22;38765;53.176;7.090;2022-07-01T13:18:15;20.40;99.90
52903;DHT22;38765;53.176;7.090;2022-07-01T13:20:41;20.70;99.90
52903;DHT22;38765;53.176;7.090;2022-07-01T13:23:07;20.80;99.90
52903;DHT22;38765;53.176;7.090;2022-07-01T13:25:32;20.80;99.90
52903;DHT22;38765;53.176;7.090;2022-07-01T13:27:58;20.90;99.90
52903;DHT22;38765;53.176;7.090;2022-07-01T13:30:24;21.10;99.90
52903;DHT22;38765;53.176;7.090;2022-07-01T13:32:50;21.30;99.90
52903;DHT22;38765;53.176;7.090;2022-07-01T13:35:18;21.40;99.90
52903;DHT22;38765;53.176;7.090;2022-07-01T13:37:44;21.50;99.90
52903;DHT22;38765;53.176;7.090;2022-07-01T13:40:10;21.50;99.90
52903;DHT22;38765;53.176;7.090;2022-07-01T13:42:36;21.70;99.90
52903;DHT22;38765;53.176;7.090;2022-07-01T13:45:04;21.80;99.90
52903;DHT22;38765;53.176;7.090;2022-07-01T13:47:30;21.80;99.90
52903;DHT22;38765;53.176;7.090;2022-07-01T13:49:55;21.70;99.90
52903;DHT22;38765;53.176;7.090;2022-07-01T13:52:21;21.70;99.90
52903;DHT22;38765;53.176;7.090;2022-07-01T13:54:47;21.70;99.90
52903;DHT22;38765;53.176;7.090;2022-07-01T13:57:15;21.70;99.90
52903;DHT22;38765;53.176;7.090;2022-07-01T13:59:41;21.70;99.90
52903;DHT22;38765;53.176;7.090;2022-07-01T14:02:07;21.60;99.90
52903;DHT22;38765;53.176;7.090;2022-07-01T14:04:33;21.60;99.90
52903;DHT22;38765;53.176;7.090;2022-07-01T14:06:58;21.60;99.90
52903;DHT22;38765;53.176;7.090;2022-07-01T14:09:24;21.40;99.90
52903;DHT22;38765;53.176;7.090;2022-07-01T14:11:50;21.50;99.90
52903;DHT22;38765;53.176;7.090;2022-07-01T14:14:16;21.60;99.90
52903;DHT22;38765;53.176;7.090;2022-07-01T14:16:42;21.70;99.90
52903;DHT22;38765;53.176;7.090;2022-07-01T14:19:07;21.80;99.90
52903;DHT22;38765;53.176;7.090;2022-07-01T14:21:33;21.80;99.90
52903;DHT22;38765;53.176;7.090;2022-07-01T14:23:58;22.00;99.90
52903;DHT22;38765;53.176;7.090;2022-07-01T14:26:24;22.20;99.90
52903;DHT22;38765;53.176;7.090;2022-07-01T14:28:50;22.40;99.90
52903;DHT22;38765;53.176;7.090;2022-07-01T14:31:15;22.60;99.90
52903;DHT22;38765;53.176;7.090;2022-07-01T14:33:41;22.80;99.90
52903;DHT22;38765;53.176;7.090;2022-07-01T14:36:07;22.90;99.90
52903;DHT22;38765;53.176;7.090;2022-07-01T14:38:33;22.90;99.90
52903;DHT22;38765;53.176;7.090;2022-07-01T14:40:58;22.90;99.90
52903;DHT22;38765;53.176;7.090;2022-07-01T14:43:26;22.80;99.90
52903;DHT22;38765;53.176;7.090;2022-07-01T14:45:52;22.70;99.90
52903;DHT22;38765;53.176;7.090;2022-07-01T14:48:18;22.60;99.90
52903;DHT22;38765;53.176;7.090;2022-07-01T14:50:43;22.60;99.90
52903;DHT22;38765;53.176;7.090;2022-07-01T14:53:09;22.50;99.90
52903;DHT22;38765;53.176;7.090;2022-07-01T14:55:55;22.40;99.90
52903;DHT22;38765;53.176;7.090;2022-07-01T14:58:40;22.30;99.90
52903;DHT22;38765;53.176;7.090;2022-07-01T15:01:08;22.10;99.90
52903;DHT22;38765;53.176;7.090;2022-07-01T15:03:35;22.20;99.90
52903;DHT22;38765;53.176;7.090;2022-07-01T15:06:01;22.40;99.90
52903;DHT22;38765;53.176;7.090;2022-07-01T15:08:27;22.40;99.90
52903;DHT22;38765;53.176;7.090;2022-07-01T15:10:52;22.50;99.90
52903;DHT22;38765;53.176;7.090;2022-07-01T15:13:28;22.30;99.90
52903;DHT22;38765;53.176;7.090;2022-07-01T15:16:00;22.10;99.90
52903;DHT22;38765;53.176;7.090;2022-07-01T15:18:26;21.80;99.90
52903;DHT22;38765;53.176;7.090;2022-07-01T15:20:52;21.60;99.90
52903;DHT22;38765;53.176;7.090;2022-07-01T15:23:17;21.50;99.90
52903;DHT22;38765;53.176;7.090;2022-07-01T15:25:43;21.40;99.90
52903;DHT22;38765;53.176;7.090;2022-07-01T15:28:08;21.30;99.90
52903;DHT22;38765;53.176;7.090;2022-07-01T15:30:34;21.40;99.90
52903;DHT22;38765;53.176;7.090;2022-07-01T15:33:00;21.50;99.90
52903;DHT22;38765;53.176;7.090;2022-07-01T15:35:25;21.50;99.90
52903;DHT22;38765;53.176;7.090;2022-07-01T15:37:51;21.40;99.90
52903;DHT22;38765;53.176;7.090;2022-07-01T15:40:16;21.40;99.90
52903;DHT22;38765;53.176;7.090;2022-07-01T15:42:42;21.40;99.90
52903;DHT22;38765;53.176;7.090;2022-07-01T15:45:08;21.60;99.90
52903;DHT22;38765;53.176;7.090;2022-07-01T15:47:34;21.60;99.90
52903;DHT22;38765;53.176;7.090;2022-07-01T15:50:18;21.50;99.90
52903;DHT22;38765;53.176;7.090;2022-07-01T15:52:45;21.50;99.90